createdAt,value
2018-01-15T00:00:08.363Z,10.10
2018-01-15T00:02:34.539Z,10.47
2018-01-15T00:05:00.739Z,10.27
2018-01-15T00:07:27.664Z,9.97
2018-01-15T00:09:54.988Z,11.73
2018-01-15T00:12:21.158Z,9.47
2018-01-15T00:14:48.075Z,10.20
2018-01-15T00:17:14.292Z,11.53
2018-01-15T00:19:40.478Z,11.20
2018-01-15T00:22:06.806Z,10.60
2018-01-15T00:24:32.991Z,7.90
2018-01-15T00:26:59.413Z,9.63
2018-01-15T00:29:25.589Z,10.10
2018-01-15T00:31:52.515Z,9.10
2018-01-15T00:34:18.717Z,10.27
2018-01-15T00:36:44.890Z,10.40
2018-01-15T00:39:11.827Z,10.57
2018-01-15T00:41:38.784Z,10.23
2018-01-15T00:44:04.991Z,9.87
2018-01-15T00:46:32.651Z,10.10
2018-01-15T00:48:58.846Z,9.87
2018-01-15T00:51:25.019Z,10.00
2018-01-15T00:53:51.967Z,9.03
2018-01-15T00:56:18.905Z,8.63
2018-01-15T00:58:45.119Z,8.43
2018-01-15T01:01:11.320Z,8.80
2018-01-15T01:03:37.495Z,8.47
2018-01-15T01:06:04.438Z,9.33
2018-01-15T01:08:31.355Z,7.57
2018-01-15T01:10:57.563Z,8.60
2018-01-15T01:13:24.143Z,8.20
2018-01-15T01:15:50.347Z,9.63
2018-01-15T01:18:16.526Z,9.00
2018-01-15T01:20:43.471Z,10.03
2018-01-15T01:23:09.679Z,9.60
2018-01-15T01:25:36.658Z,8.90
2018-01-15T01:28:02.859Z,10.00
2018-01-15T01:30:29.791Z,10.37
2018-01-15T01:32:55.991Z,10.60
2018-01-15T01:35:22.171Z,7.70
2018-01-15T01:37:49.110Z,9.63
2018-01-15T01:40:16.031Z,8.90
2018-01-15T01:42:42.231Z,9.13
2018-01-15T01:45:08.419Z,7.80
2018-01-15T01:47:35.383Z,8.63
2018-01-15T01:50:01.564Z,9.90
2018-01-15T01:52:27.743Z,9.50
2018-01-15T01:54:53.943Z,9.63
2018-01-15T01:57:20.862Z,8.87
2018-01-15T01:59:47.063Z,9.10
2018-01-15T02:02:13.635Z,9.30
2018-01-15T02:04:39.842Z,8.30
2018-01-15T02:07:06.023Z,9.47
2018-01-15T02:09:33.116Z,10.20
2018-01-15T02:11:59.759Z,10.30
2018-01-15T02:14:26.603Z,10.67
2018-01-15T02:16:53.548Z,12.90
2018-01-15T02:19:20.904Z,12.30
2018-01-15T02:21:47.167Z,12.30
2018-01-15T02:24:14.135Z,14.40
2018-01-15T02:26:40.390Z,11.20
2018-01-15T02:29:06.616Z,11.20
2018-01-15T02:31:32.823Z,17.70
2018-01-15T02:33:59.003Z,12.73
2018-01-15T02:36:25.211Z,11.17
2018-01-15T02:38:51.390Z,13.50
2018-01-15T02:41:18.339Z,14.00
2018-01-15T02:43:45.267Z,11.17
2018-01-15T02:46:11.502Z,13.30
2018-01-15T02:48:38.435Z,12.60
2018-01-15T02:51:04.624Z,13.20
2018-01-15T02:53:30.835Z,12.83
2018-01-15T02:55:57.019Z,12.63
2018-01-15T02:58:23.999Z,13.57
2018-01-15T03:00:50.923Z,12.30
2018-01-15T03:03:17.123Z,12.33
2018-01-15T03:05:43.290Z,12.13
2018-01-15T03:08:10.230Z,12.80
2018-01-15T03:10:37.173Z,12.50
2018-01-15T03:13:03.407Z,12.80
2018-01-15T03:15:30.335Z,12.07
2018-01-15T03:17:56.538Z,11.83
2018-01-15T03:20:22.711Z,13.60
2018-01-15T03:22:49.830Z,10.90
2018-01-15T03:25:16.010Z,13.23
2018-01-15T03:27:42.196Z,12.93
2018-01-15T03:30:09.895Z,11.77
2018-01-15T03:32:36.076Z,11.00
2018-01-15T03:35:02.280Z,11.93
2018-01-15T03:37:28.487Z,12.27
2018-01-15T03:39:54.695Z,12.43
2018-01-15T03:42:21.620Z,11.90
2018-01-15T03:44:47.823Z,10.40
2018-01-15T03:47:14.003Z,12.90
2018-01-15T03:49:40.995Z,11.77
2018-01-15T03:52:07.199Z,11.10
2018-01-15T03:54:33.375Z,10.60
2018-01-15T03:56:59.574Z,12.73
2018-01-15T03:59:25.754Z,9.03
2018-01-15T04:01:52.700Z,6.30
2018-01-15T04:04:19.624Z,8.80
2018-01-15T04:06:45.836Z,8.50
2018-01-15T04:09:12.015Z,10.50
2018-01-15T04:11:38.961Z,10.93
2018-01-15T04:14:05.883Z,11.53
2018-01-15T04:16:32.119Z,8.67
2018-01-15T04:18:58.300Z,11.53
2018-01-15T04:21:24.644Z,10.73
2018-01-15T04:23:50.851Z,10.63
2018-01-15T04:26:17.031Z,9.27
2018-01-15T04:28:43.237Z,11.13
2018-01-15T04:31:09.418Z,12.60
2018-01-15T04:33:35.624Z,7.80
2018-01-15T04:36:02.567Z,10.70
2018-01-15T04:38:29.515Z,11.43
2018-01-15T04:40:56.451Z,8.13
2018-01-15T04:43:22.654Z,12.23
2018-01-15T04:45:48.863Z,11.40
2018-01-15T04:48:15.083Z,10.53
2018-01-15T04:50:41.286Z,11.30
2018-01-15T04:53:08.211Z,11.60
2018-01-15T04:55:34.412Z,11.17
2018-01-15T04:58:00.592Z,8.90
2018-01-15T05:00:27.539Z,8.73
2018-01-15T05:02:54.458Z,9.80
2018-01-15T05:05:20.661Z,6.83
2018-01-15T05:07:46.835Z,9.50
2018-01-15T05:10:13.771Z,9.90
2018-01-15T05:12:40.693Z,9.97
2018-01-15T05:15:06.907Z,9.93
2018-01-15T05:17:33.419Z,10.30
2018-01-15T05:19:59.603Z,9.00
2018-01-15T05:22:25.831Z,8.93
2018-01-15T05:24:52.176Z,9.87
2018-01-15T05:27:19.091Z,8.97
2018-01-15T05:29:45.342Z,11.47
2018-01-15T05:32:12.292Z,10.03
2018-01-15T05:34:39.210Z,10.43
2018-01-15T05:37:06.215Z,9.40
2018-01-15T05:39:32.443Z,8.20
2018-01-15T05:41:58.650Z,9.20
2018-01-15T05:44:25.562Z,8.43
2018-01-15T05:46:52.023Z,9.70
2018-01-15T05:49:18.939Z,10.50
2018-01-15T05:51:45.119Z,8.20
2018-01-15T05:54:11.319Z,8.57
2018-01-15T05:56:38.239Z,7.63
2018-01-15T05:59:04.445Z,7.60
2018-01-15T06:01:30.635Z,8.10
2018-01-15T06:03:57.578Z,9.50
2018-01-15T06:06:24.500Z,9.27
2018-01-15T06:08:50.712Z,9.63
2018-01-15T06:11:16.887Z,8.33
2018-01-15T06:13:43.858Z,9.20
2018-01-15T06:16:10.034Z,8.77
2018-01-15T06:18:36.519Z,8.97
2018-01-15T06:21:02.718Z,9.73
2018-01-15T06:23:29.666Z,7.90
2018-01-15T06:25:56.610Z,8.20
2018-01-15T06:28:23.531Z,9.67
2018-01-15T06:30:49.742Z,9.23
2018-01-15T06:33:15.930Z,6.50
2018-01-15T06:35:42.131Z,11.07
2018-01-15T06:38:09.054Z,6.93
2018-01-15T06:40:35.255Z,9.67
2018-01-15T06:43:01.435Z,6.73
2018-01-15T06:45:28.383Z,9.23
2018-01-15T06:47:54.595Z,7.53
2018-01-15T06:50:20.802Z,9.73
2018-01-15T06:52:46.998Z,7.47
2018-01-15T06:55:13.179Z,10.70
2018-01-15T06:57:39.384Z,9.87
2018-01-15T07:00:05.565Z,8.57
2018-01-15T07:02:32.767Z,8.47
2018-01-15T07:04:58.943Z,10.00
2018-01-15T07:07:25.863Z,8.27
2018-01-15T07:09:52.063Z,9.50
2018-01-15T07:12:18.235Z,8.07
2018-01-15T07:14:45.175Z,8.40
2018-01-15T07:17:12.104Z,8.77
2018-01-15T07:19:38.303Z,9.00
2018-01-15T07:22:04.523Z,9.87
2018-01-15T07:24:30.730Z,8.07
2018-01-15T07:26:56.913Z,9.60
2018-01-15T07:29:23.215Z,6.03
2018-01-15T07:31:49.404Z,9.53
2018-01-15T07:34:16.326Z,8.00
2018-01-15T07:36:42.532Z,9.93
2018-01-15T07:39:08.721Z,10.97
2018-01-15T07:41:34.919Z,7.50
2018-01-15T07:44:01.098Z,8.30
2018-01-15T07:46:27.339Z,8.80
2018-01-15T07:48:53.518Z,7.43
2018-01-15T07:51:20.459Z,9.67
2018-01-15T07:53:47.439Z,9.93
2018-01-15T07:56:13.675Z,10.13
2018-01-15T07:58:39.851Z,8.53
2018-01-15T08:01:06.063Z,8.37
2018-01-15T08:03:33.727Z,9.57
2018-01-15T08:05:59.944Z,9.70
2018-01-15T08:08:26.123Z,8.80
2018-01-15T08:10:53.071Z,8.97
2018-01-15T08:13:19.991Z,10.03
2018-01-15T08:15:46.996Z,8.33
2018-01-15T08:18:13.171Z,7.83
2018-01-15T08:20:39.375Z,9.10
2018-01-15T08:23:05.581Z,8.30
2018-01-15T08:25:31.764Z,9.40
2018-01-15T08:27:58.710Z,9.70
2018-01-15T08:30:25.650Z,9.97
2018-01-15T08:32:52.633Z,9.53
2018-01-15T08:35:18.811Z,11.73
2018-01-15T08:37:45.075Z,8.80
2018-01-15T08:40:11.992Z,8.30
2018-01-15T08:42:38.222Z,9.40
2018-01-15T08:45:04.398Z,11.00
2018-01-15T08:47:30.626Z,8.40
2018-01-15T08:49:56.802Z,9.10
2018-01-15T08:52:22.987Z,9.10
2018-01-15T08:54:49.191Z,7.97
2018-01-15T08:57:15.387Z,8.20
2018-01-15T08:59:42.327Z,9.10
2018-01-15T09:02:08.505Z,10.10
2018-01-15T09:04:34.711Z,8.53
2018-01-15T09:07:01.630Z,8.30
2018-01-15T09:09:27.831Z,8.60
2018-01-15T09:11:54.007Z,8.20
2018-01-15T09:14:20.248Z,7.57
2018-01-15T09:16:47.171Z,8.73
2018-01-15T09:19:13.375Z,8.43
2018-01-15T09:21:39.554Z,7.60
2018-01-15T09:24:05.787Z,7.70
2018-01-15T09:26:31.971Z,8.20
2018-01-15T09:28:58.190Z,7.27
2018-01-15T09:31:24.367Z,9.10
2018-01-15T09:33:51.286Z,8.20
2018-01-15T09:36:17.491Z,8.13
2018-01-15T09:38:43.667Z,7.73
2018-01-15T09:41:09.912Z,7.33
2018-01-15T09:43:36.091Z,7.47
2018-01-15T09:46:03.067Z,7.37
2018-01-15T09:48:29.995Z,7.77
2018-01-15T09:50:57.713Z,7.57
2018-01-15T09:53:24.245Z,8.47
2018-01-15T09:55:50.598Z,7.60
2018-01-15T09:58:16.807Z,7.27
2018-01-15T10:00:42.987Z,8.00
2018-01-15T10:03:09.199Z,8.63
2018-01-15T10:05:35.379Z,7.50
2018-01-15T10:08:01.578Z,7.50
2018-01-15T10:10:28.495Z,6.83
2018-01-15T10:12:54.703Z,6.60
2018-01-15T10:15:20.887Z,7.53
2018-01-15T10:17:47.835Z,8.83
2018-01-15T10:20:14.762Z,7.10
2018-01-15T10:22:40.986Z,7.67
2018-01-15T10:25:07.173Z,7.93
2018-01-15T10:27:33.702Z,8.30
2018-01-15T10:29:59.879Z,9.00
2018-01-15T10:32:26.066Z,7.10
2018-01-15T10:34:52.271Z,7.30
2018-01-15T10:37:19.337Z,7.07
2018-01-15T10:39:45.542Z,9.17
2018-01-15T10:42:12.469Z,8.90
2018-01-15T10:44:39.435Z,8.83
2018-01-15T10:47:05.616Z,7.80
2018-01-15T10:49:31.823Z,9.70
2018-01-15T10:51:57.999Z,10.67
2018-01-15T10:54:24.947Z,9.60
2018-01-15T10:56:51.871Z,9.60
2018-01-15T10:59:18.848Z,8.80
2018-01-15T11:01:45.764Z,8.60
2018-01-15T11:04:12.008Z,9.87
2018-01-15T11:06:38.192Z,8.90
2018-01-15T11:09:04.386Z,9.40
2018-01-15T11:11:31.347Z,9.90
2018-01-15T11:13:57.524Z,9.70
2018-01-15T11:16:23.732Z,9.80
2018-01-15T11:18:49.936Z,10.07
2018-01-15T11:21:16.147Z,10.00
2018-01-15T11:23:43.087Z,9.73
2018-01-15T11:26:10.078Z,9.47
2018-01-15T11:28:36.255Z,8.53
2018-01-15T11:31:03.176Z,10.70
2018-01-15T11:33:29.379Z,10.50
2018-01-15T11:35:55.555Z,8.47
2018-01-15T11:38:22.519Z,8.93
2018-01-15T11:40:48.704Z,9.57
2018-01-15T11:43:14.904Z,8.53
2018-01-15T11:45:41.095Z,9.00
2018-01-15T11:48:08.055Z,9.23
2018-01-15T11:50:34.232Z,8.40
2018-01-15T11:53:00.452Z,8.20
2018-01-15T11:55:26.632Z,11.20
2018-01-15T11:57:53.552Z,9.43
2018-01-15T12:00:19.754Z,9.00
2018-01-15T12:02:45.938Z,11.23
2018-01-15T12:05:12.139Z,9.80
2018-01-15T12:07:38.312Z,10.60
2018-01-15T12:10:04.869Z,9.90
2018-01-15T12:12:31.050Z,8.40
2018-01-15T12:14:57.967Z,9.23
2018-01-15T12:17:24.172Z,9.37
2018-01-15T12:19:50.608Z,8.60
2018-01-15T12:22:16.810Z,8.30
2018-01-15T12:24:43.007Z,7.67
2018-01-15T12:27:09.961Z,9.60
2018-01-15T12:29:36.879Z,9.70
2018-01-15T12:32:03.123Z,8.53
2018-01-15T12:34:30.043Z,8.77
2018-01-15T12:36:56.361Z,7.20
2018-01-15T12:39:22.559Z,7.70
2018-01-15T12:41:48.743Z,8.60
2018-01-15T12:44:14.948Z,8.70
2018-01-15T12:46:41.123Z,8.87
2018-01-15T12:49:08.075Z,8.77
2018-01-15T12:51:34.999Z,8.47
2018-01-15T12:54:01.208Z,7.90
2018-01-15T12:56:27.392Z,7.30
2018-01-15T12:58:53.595Z,8.60
2018-01-15T13:01:20.510Z,8.50
2018-01-15T13:03:46.715Z,9.13
2018-01-15T13:06:19.015Z,9.43
2018-01-15T13:08:48.501Z,8.37
2018-01-15T13:11:14.685Z,7.90
2018-01-15T13:13:41.612Z,9.10
2018-01-15T13:16:08.573Z,9.20
2018-01-15T13:18:35.495Z,8.93
2018-01-15T13:21:01.700Z,7.83
2018-01-15T13:23:27.899Z,9.93
2018-01-15T13:25:54.101Z,8.93
2018-01-15T13:28:21.015Z,8.50
2018-01-15T13:30:47.219Z,8.83
2018-01-15T13:33:13.400Z,9.43
2018-01-15T13:35:40.687Z,9.10
2018-01-15T13:38:06.863Z,8.20
2018-01-15T13:40:33.074Z,8.47
2018-01-15T13:42:59.262Z,9.47
2018-01-15T13:45:25.471Z,9.50
2018-01-15T13:47:52.416Z,9.50
2018-01-15T13:50:19.366Z,8.17
2018-01-15T13:52:46.367Z,8.10
2018-01-15T13:55:12.889Z,8.10
2018-01-15T13:57:39.063Z,8.20
2018-01-15T14:00:06.040Z,8.63
2018-01-15T14:02:32.215Z,8.70
2018-01-15T14:04:58.457Z,8.20
2018-01-15T14:07:24.668Z,7.80
2018-01-15T14:09:50.860Z,9.00
2018-01-15T14:12:17.068Z,9.50
2018-01-15T14:14:43.988Z,8.87
2018-01-15T14:17:10.192Z,8.80
2018-01-15T14:19:37.148Z,9.20
2018-01-15T14:22:03.351Z,8.67
2018-01-15T14:24:29.551Z,8.40
2018-01-15T14:26:55.759Z,9.53
2018-01-15T14:29:22.683Z,8.60
2018-01-15T14:31:48.883Z,9.10
2018-01-15T14:34:15.059Z,10.40
2018-01-15T14:36:42.019Z,8.30
2018-01-15T14:39:08.947Z,8.63
2018-01-15T14:41:35.127Z,9.43
2018-01-15T14:44:01.334Z,11.03
2018-01-15T14:46:27.510Z,7.87
2018-01-15T14:48:53.717Z,6.97
2018-01-15T14:51:19.898Z,7.20
2018-01-15T14:53:46.847Z,8.07
2018-01-15T14:56:13.831Z,8.20
2018-01-15T14:58:40.035Z,8.80
2018-01-15T15:01:06.238Z,10.23
2018-01-15T15:03:32.415Z,8.40
2018-01-15T15:05:58.611Z,8.37
2018-01-15T15:08:25.531Z,9.00
2018-01-15T15:10:51.770Z,8.60
2018-01-15T15:13:18.700Z,11.00
2018-01-15T15:15:46.359Z,9.23
2018-01-15T15:18:12.563Z,8.33
2018-01-15T15:20:38.738Z,7.67
2018-01-15T15:23:05.706Z,8.50
2018-01-15T15:25:31.887Z,8.20
2018-01-15T15:27:58.096Z,9.23
2018-01-15T15:30:24.274Z,9.50
2018-01-15T15:32:51.231Z,8.83
2018-01-15T15:35:18.151Z,8.57
2018-01-15T15:37:44.354Z,9.50
2018-01-15T15:40:10.538Z,7.00
2018-01-15T15:42:36.775Z,8.83
2018-01-15T15:45:03.322Z,8.30
2018-01-15T15:47:29.509Z,8.83
2018-01-15T15:49:56.461Z,7.03
2018-01-15T15:52:23.382Z,9.20
2018-01-15T15:54:51.091Z,7.20
2018-01-15T15:57:17.439Z,9.60
2018-01-15T15:59:43.627Z,8.90
2018-01-15T16:02:10.574Z,8.60
2018-01-15T16:04:37.551Z,8.00
2018-01-15T16:07:03.727Z,7.53
2018-01-15T16:09:29.919Z,5.67
2018-01-15T16:11:56.465Z,7.00
2018-01-15T16:14:22.643Z,8.47
2018-01-15T16:16:49.647Z,6.30
2018-01-15T16:19:15.831Z,7.70
2018-01-15T16:21:42.819Z,7.63
2018-01-15T16:24:09.027Z,6.77
2018-01-15T16:26:35.388Z,8.47
2018-01-15T16:29:01.571Z,7.00
2018-01-15T16:31:27.752Z,8.70
2018-01-15T16:33:53.967Z,8.10
2018-01-15T16:36:20.163Z,5.70
2018-01-15T16:38:46.358Z,7.40
2018-01-15T16:41:12.531Z,7.37
2018-01-15T16:43:38.735Z,5.67
2018-01-15T16:46:05.663Z,8.13
2018-01-15T16:48:31.888Z,7.93
2018-01-15T16:50:58.071Z,8.00
2018-01-15T16:53:24.247Z,7.10
2018-01-15T16:55:50.451Z,5.83
2018-01-15T16:58:16.639Z,7.53
2018-01-15T17:00:42.870Z,9.87
2018-01-15T17:03:09.051Z,6.10
2018-01-15T17:05:35.256Z,5.47
2018-01-15T17:08:01.443Z,7.70
2018-01-15T17:10:27.667Z,8.37
2018-01-15T17:12:54.608Z,8.30
2018-01-15T17:15:21.531Z,8.20
2018-01-15T17:17:47.752Z,7.93
2018-01-15T17:20:13.931Z,9.30
2018-01-15T17:22:40.135Z,9.10
2018-01-15T17:25:07.194Z,8.03
2018-01-15T17:27:34.139Z,8.30
2018-01-15T17:30:01.059Z,8.97
2018-01-15T17:32:27.260Z,8.37
2018-01-15T17:34:53.435Z,7.00
2018-01-15T17:37:20.375Z,7.67
2018-01-15T17:39:47.291Z,9.30
2018-01-15T17:42:13.495Z,10.30
2018-01-15T17:44:39.712Z,8.13
2018-01-15T17:47:05.915Z,9.50
2018-01-15T17:49:33.091Z,7.40
2018-01-15T17:51:59.323Z,9.00
2018-01-15T17:54:25.499Z,10.50
2018-01-15T17:56:51.703Z,9.37
2018-01-15T17:59:17.880Z,8.07
2018-01-15T18:01:44.851Z,8.43
2018-01-15T18:04:11.023Z,9.63
2018-01-15T18:06:37.225Z,8.77
2018-01-15T18:09:03.491Z,11.33
2018-01-15T18:11:29.671Z,8.50
2018-01-15T18:13:55.875Z,8.30
2018-01-15T18:16:22.055Z,9.27
2018-01-15T18:18:48.258Z,14.97
2018-01-15T18:21:14.434Z,8.17
2018-01-15T18:23:41.403Z,8.90
2018-01-15T18:26:08.331Z,8.97
2018-01-15T18:28:35.441Z,10.53
2018-01-15T18:31:01.623Z,11.77
2018-01-15T18:33:28.547Z,11.30
2018-01-15T18:35:54.755Z,8.90
2018-01-15T18:38:20.940Z,9.10
2018-01-15T18:40:47.138Z,9.30
2018-01-15T18:43:14.074Z,10.80
2018-01-15T18:45:40.282Z,9.70
2018-01-15T18:48:06.463Z,10.87
2018-01-15T18:50:32.662Z,10.87
2018-01-15T18:52:58.844Z,11.50
2018-01-15T18:55:25.031Z,10.67
2018-01-15T18:57:51.974Z,11.20
2018-01-15T19:00:18.899Z,10.03
2018-01-15T19:02:45.099Z,11.70
2018-01-15T19:05:11.275Z,8.87
2018-01-15T19:07:38.219Z,11.20
2018-01-15T19:10:05.147Z,11.47
2018-01-15T19:12:31.661Z,10.57
2018-01-15T19:14:57.882Z,9.43
2018-01-15T19:17:24.059Z,9.77
2018-01-15T19:19:51.014Z,12.10
2018-01-15T19:22:18.524Z,12.07
2018-01-15T19:24:44.731Z,11.80
2018-01-15T19:27:10.978Z,11.27
2018-01-15T19:29:37.543Z,11.50
2018-01-15T19:32:03.743Z,9.37
2018-01-15T19:37:37.487Z,9.90
2018-01-15T19:40:03.715Z,10.10
2018-01-15T19:42:29.961Z,11.80
2018-01-15T19:45:03.086Z,9.43
2018-01-15T19:50:51.659Z,16.47
2018-01-15T19:53:23.952Z,11.90
2018-01-15T19:55:56.269Z,8.70
2018-01-15T19:58:28.556Z,10.00
2018-01-15T20:01:01.627Z,10.33
2018-01-15T20:03:34.685Z,9.60
2018-01-15T20:06:06.983Z,9.20
2018-01-15T20:08:40.156Z,12.43
2018-01-15T20:11:07.197Z,9.20
2018-01-15T20:13:33.455Z,10.27
2018-01-15T20:15:59.679Z,11.13
2018-01-15T20:18:26.632Z,11.27
2018-01-15T20:20:52.835Z,12.37
2018-01-15T20:23:19.038Z,10.23
2018-01-15T20:25:45.248Z,10.20
2018-01-15T20:28:12.236Z,11.70
2018-01-15T20:30:38.501Z,11.97
2018-01-15T20:33:04.726Z,12.10
2018-01-15T20:35:30.904Z,11.43
2018-01-15T20:37:57.177Z,11.37
2018-01-15T20:40:23.505Z,12.20
2018-01-15T20:42:49.706Z,12.17
2018-01-15T20:45:15.933Z,12.30
2018-01-15T20:47:42.138Z,12.23
2018-01-15T20:50:08.319Z,12.00
2018-01-15T20:52:35.296Z,13.80
2018-01-15T20:55:02.214Z,16.90
2018-01-15T20:57:28.461Z,10.10
2018-01-15T20:59:55.383Z,10.83
2018-01-15T21:02:21.638Z,12.43
2018-01-15T21:04:48.611Z,11.70
2018-01-15T21:07:14.926Z,10.20
2018-01-15T21:09:41.848Z,12.37
2018-01-15T21:12:08.097Z,10.00
2018-01-15T21:14:35.061Z,12.40
2018-01-15T21:17:01.268Z,10.87
2018-01-15T21:19:28.237Z,12.47
2018-01-15T21:21:54.452Z,12.63
2018-01-15T21:24:21.474Z,9.83
2018-01-15T21:26:47.704Z,10.83
2018-01-15T21:29:13.965Z,10.33
2018-01-15T21:31:40.928Z,11.83
2018-01-15T21:34:07.180Z,13.30
2018-01-15T21:36:33.363Z,11.97
2018-01-15T21:39:00.307Z,12.03
2018-01-15T21:41:27.331Z,12.90
2018-01-15T21:43:53.558Z,10.53
2018-01-15T21:46:20.387Z,11.43
2018-01-15T21:48:46.642Z,10.13
2018-01-15T21:51:12.823Z,12.10
2018-01-15T21:53:39.008Z,12.40
2018-01-15T21:56:05.971Z,9.93
2018-01-15T21:58:32.193Z,8.53
2018-01-15T22:00:59.173Z,8.60
2018-01-15T22:03:25.422Z,9.50
2018-01-15T22:05:51.626Z,7.30
2018-01-15T22:08:17.877Z,9.23
2018-01-15T22:10:44.083Z,9.70
2018-01-15T22:13:10.259Z,9.40
2018-01-15T22:15:36.501Z,9.63
2018-01-15T22:18:03.465Z,7.50
2018-01-15T22:20:29.671Z,5.37
2018-01-15T22:22:55.898Z,6.27
2018-01-15T22:25:22.131Z,9.87
2018-01-15T22:27:49.047Z,10.00
2018-01-15T22:30:15.366Z,7.10
2018-01-15T22:32:41.589Z,8.10
2018-01-15T22:35:07.767Z,6.97
2018-01-15T22:37:34.769Z,6.37
2018-01-15T22:40:00.993Z,5.83
2018-01-15T22:42:27.191Z,6.57
2018-01-15T22:44:53.375Z,6.53
2018-01-15T22:47:19.574Z,6.90
2018-01-15T22:49:45.749Z,5.80
2018-01-15T22:52:11.950Z,6.97
2018-01-15T22:54:38.135Z,7.27
2018-01-15T22:57:04.343Z,5.60
2018-01-15T22:59:31.263Z,4.43
2018-01-15T23:01:57.471Z,6.10
2018-01-15T23:04:23.666Z,4.63
2018-01-15T23:06:49.846Z,5.27
2018-01-15T23:09:16.052Z,4.30
2018-01-15T23:11:42.226Z,5.43
2018-01-15T23:14:09.175Z,4.03
2018-01-15T23:16:36.091Z,5.23
2018-01-15T23:19:02.292Z,4.60
2018-01-15T23:21:28.723Z,4.40
2018-01-15T23:23:54.948Z,3.60
2018-01-15T23:26:21.130Z,3.83
2018-01-15T23:28:48.080Z,3.17
2018-01-15T23:31:15.016Z,4.60
2018-01-15T23:33:41.967Z,3.77
2018-01-15T23:36:08.146Z,3.40
2018-01-15T23:38:34.348Z,4.00
2018-01-15T23:41:00.555Z,4.77
2018-01-15T23:43:27.057Z,2.80
2018-01-15T23:45:53.295Z,5.03
2018-01-15T23:48:19.471Z,3.30
2018-01-15T23:50:46.430Z,3.30
2018-01-15T23:53:12.603Z,3.73
2018-01-15T23:55:38.807Z,4.10
2018-01-15T23:58:04.984Z,3.30
